createdAt,value
2019-01-28T00:00:27.023Z,73.14
2019-01-28T00:02:53.923Z,72.93
2019-01-28T00:05:20.632Z,72.81
2019-01-28T00:07:47.263Z,72.90
2019-01-28T00:10:13.860Z,73.19
2019-01-28T00:12:40.637Z,73.16
2019-01-28T00:15:07.220Z,73.40
2019-01-28T00:17:33.822Z,73.07
2019-01-28T00:20:00.428Z,73.09
2019-01-28T00:22:27.099Z,73.00
2019-01-28T00:24:53.699Z,73.06
2019-01-28T00:27:20.395Z,73.16
2019-01-28T00:29:47.029Z,73.18
2019-01-28T00:32:13.620Z,73.27
2019-01-28T00:34:40.173Z,73.18
2019-01-28T00:37:06.837Z,73.20
2019-01-28T00:39:33.592Z,73.31
2019-01-28T00:42:00.198Z,73.73
2019-01-28T00:44:26.820Z,73.77
2019-01-28T00:46:53.401Z,73.42
2019-01-28T00:49:19.975Z,73.53
2019-01-28T00:51:46.599Z,73.76
2019-01-28T00:54:13.278Z,73.30
2019-01-28T00:56:39.940Z,73.46
2019-01-28T00:59:06.589Z,73.82
2019-01-28T01:01:33.549Z,73.92
2019-01-28T01:04:00.647Z,74.13
2019-01-28T01:06:27.668Z,73.92
2019-01-28T01:08:54.732Z,73.83
2019-01-28T01:11:21.715Z,74.38
2019-01-28T01:13:48.821Z,74.32
2019-01-28T01:16:15.793Z,74.24
2019-01-28T01:18:42.847Z,74.33
2019-01-28T01:21:10.193Z,74.27
2019-01-28T01:23:37.396Z,74.36
2019-01-28T01:26:04.371Z,74.22
2019-01-28T01:28:31.351Z,74.46
2019-01-28T01:30:58.539Z,74.75
2019-01-28T01:33:25.540Z,75.08
2019-01-28T01:35:52.498Z,75.68
2019-01-28T01:38:19.463Z,75.33
2019-01-28T01:40:46.410Z,75.50
2019-01-28T01:43:13.529Z,74.78
2019-01-28T01:45:40.619Z,75.13
2019-01-28T01:48:07.708Z,74.89
2019-01-28T01:50:34.789Z,75.01
2019-01-28T01:53:01.877Z,74.68
2019-01-28T01:55:29.019Z,74.30
2019-01-28T01:57:56.036Z,74.40
2019-01-28T02:00:23.123Z,74.56
2019-01-28T02:02:49.789Z,75.16
2019-01-28T02:05:16.678Z,75.04
2019-01-28T02:07:43.810Z,75.95
2019-01-28T02:10:13.528Z,75.47
2019-01-28T02:12:40.642Z,76.06
2019-01-28T02:15:12.519Z,76.52
2019-01-28T02:17:39.568Z,76.02
2019-01-28T02:20:09.003Z,76.01
2019-01-28T02:22:36.494Z,75.77
2019-01-28T02:25:07.648Z,76.62
2019-01-28T02:27:34.652Z,76.42
2019-01-28T02:30:03.938Z,76.73
2019-01-28T02:32:31.141Z,75.86
2019-01-28T02:34:58.191Z,75.43
2019-01-28T02:37:25.384Z,76.23
2019-01-28T02:39:52.250Z,76.47
2019-01-28T02:42:19.332Z,76.45
2019-01-28T02:44:46.342Z,76.24
2019-01-28T02:47:16.496Z,76.47
2019-01-28T02:49:43.453Z,75.94
2019-01-28T02:52:10.423Z,76.12
2019-01-28T02:54:37.261Z,75.88
2019-01-28T02:57:04.106Z,76.30
2019-01-28T02:59:31.385Z,75.85
2019-01-28T03:01:59.192Z,76.14
2019-01-28T03:04:26.480Z,77.34
2019-01-28T03:06:53.377Z,76.74
2019-01-28T03:09:20.299Z,76.06
2019-01-28T03:11:47.295Z,76.93
2019-01-28T03:14:14.401Z,77.20
2019-01-28T03:16:41.379Z,77.42
2019-01-28T03:19:08.336Z,77.76
2019-01-28T03:21:35.422Z,77.98
2019-01-28T03:24:02.592Z,78.05
2019-01-28T03:26:29.565Z,77.97
2019-01-28T03:28:56.628Z,77.71
2019-01-28T03:31:23.712Z,77.70
2019-01-28T03:33:50.802Z,77.28
2019-01-28T03:36:17.498Z,76.63
2019-01-28T03:38:44.494Z,77.43
2019-01-28T03:41:11.614Z,76.98
2019-01-28T03:43:38.561Z,77.32
2019-01-28T03:46:05.529Z,77.76
2019-01-28T03:48:32.812Z,77.38
2019-01-28T03:50:59.726Z,77.12
2019-01-28T03:53:26.972Z,76.91
2019-01-28T03:55:53.951Z,77.45
2019-01-28T03:58:20.913Z,77.25
2019-01-28T04:00:48.050Z,77.23
2019-01-28T04:03:16.280Z,76.99
2019-01-28T04:05:43.275Z,76.89
2019-01-28T04:08:10.243Z,76.58
2019-01-28T04:10:37.341Z,77.09
2019-01-28T04:13:04.399Z,76.82
2019-01-28T04:15:32.565Z,77.00
2019-01-28T04:17:59.842Z,77.06
2019-01-28T04:20:27.282Z,76.82
2019-01-28T04:22:54.277Z,77.24
2019-01-28T04:25:21.342Z,76.93
2019-01-28T04:27:48.367Z,76.77
2019-01-28T04:30:19.554Z,76.53
2019-01-28T04:32:46.613Z,76.43
2019-01-28T04:35:13.618Z,76.72
2019-01-28T04:37:41.228Z,76.56
2019-01-28T04:40:11.701Z,76.57
2019-01-28T04:42:38.664Z,76.26
2019-01-28T04:45:11.281Z,76.21
2019-01-28T04:47:38.190Z,76.30
2019-01-28T04:50:10.020Z,76.30
2019-01-28T04:52:37.058Z,75.67
2019-01-28T04:55:06.290Z,75.97
2019-01-28T04:57:33.164Z,75.57
2019-01-28T05:00:00.271Z,75.87
2019-01-28T05:02:27.268Z,76.48
2019-01-28T05:04:54.319Z,76.39
2019-01-28T05:07:21.339Z,76.60
2019-01-28T05:09:48.250Z,76.38
2019-01-28T05:12:15.558Z,76.46
2019-01-28T05:14:42.219Z,76.16
2019-01-28T05:17:09.067Z,75.99
2019-01-28T05:19:36.040Z,76.18
2019-01-28T05:22:02.989Z,76.51
2019-01-28T05:24:29.682Z,77.21
2019-01-28T05:26:56.536Z,77.69
2019-01-28T05:29:23.405Z,77.08
2019-01-28T05:31:50.373Z,77.01
2019-01-28T05:34:17.321Z,77.02
2019-01-28T05:36:44.301Z,76.11
2019-01-28T05:39:11.189Z,76.64
2019-01-28T05:41:38.166Z,76.87
2019-01-28T05:44:05.196Z,76.36
2019-01-28T05:46:33.576Z,76.39
2019-01-28T05:49:00.581Z,76.28
2019-01-28T05:51:27.561Z,76.00
2019-01-28T05:53:54.569Z,76.15
2019-01-28T05:56:21.548Z,76.35
2019-01-28T05:58:48.687Z,76.47
2019-01-28T06:01:15.876Z,76.21
2019-01-28T06:03:42.676Z,76.80
2019-01-28T06:06:09.297Z,76.70
2019-01-28T06:08:36.226Z,76.57
2019-01-28T06:11:03.254Z,76.83
2019-01-28T06:13:30.272Z,76.61
2019-01-28T06:15:57.283Z,76.93
2019-01-28T06:18:24.020Z,76.90
2019-01-28T06:20:50.610Z,76.92
2019-01-28T06:23:17.229Z,77.08
2019-01-28T06:25:43.857Z,77.17
2019-01-28T06:28:10.406Z,76.61
2019-01-28T06:30:37.010Z,76.95
2019-01-28T06:33:03.699Z,76.91
2019-01-28T06:35:30.246Z,77.00
2019-01-28T06:37:56.845Z,77.00
2019-01-28T06:40:27.611Z,76.93
2019-01-28T06:42:55.191Z,76.67
2019-01-28T06:45:21.794Z,76.60
2019-01-28T06:47:48.422Z,76.46
2019-01-28T06:50:18.345Z,76.85
2019-01-28T06:52:44.953Z,76.44
2019-01-28T06:55:11.539Z,76.32
2019-01-28T06:57:38.167Z,76.39
2019-01-28T07:00:10.543Z,77.01
2019-01-28T07:02:37.142Z,76.92
2019-01-28T07:05:04.404Z,76.58
2019-01-28T07:07:31.181Z,76.64
2019-01-28T07:09:57.789Z,76.56
2019-01-28T07:12:24.365Z,76.92
2019-01-28T07:14:50.977Z,76.89
2019-01-28T07:17:19.038Z,76.92
2019-01-28T07:19:45.635Z,76.64
2019-01-28T07:22:12.252Z,76.86
2019-01-28T07:24:38.901Z,77.21
2019-01-28T07:27:05.497Z,77.41
2019-01-28T07:29:32.378Z,77.19
2019-01-28T07:32:00.102Z,76.23
2019-01-28T07:34:26.915Z,76.37
2019-01-28T07:36:53.522Z,76.74
2019-01-28T07:39:20.121Z,76.42
2019-01-28T07:41:46.750Z,75.99
2019-01-28T07:44:13.329Z,76.00
2019-01-28T07:46:39.904Z,76.74
2019-01-28T07:49:06.598Z,75.95
2019-01-28T07:51:33.438Z,76.00
2019-01-28T07:54:00.042Z,76.56
2019-01-28T07:56:26.827Z,76.76
2019-01-28T07:58:53.405Z,76.51
2019-01-28T08:01:20.001Z,76.06
2019-01-28T08:03:46.683Z,75.61
2019-01-28T08:06:13.266Z,75.90
2019-01-28T08:08:39.884Z,75.69
2019-01-28T08:11:06.462Z,75.75
2019-01-28T08:13:33.272Z,75.01
2019-01-28T08:15:59.927Z,74.99
2019-01-28T08:18:26.517Z,74.84
2019-01-28T08:20:53.195Z,74.64
2019-01-28T08:23:19.821Z,74.19
2019-01-28T08:25:46.390Z,73.63
2019-01-28T08:28:12.983Z,73.82
2019-01-28T08:30:39.604Z,73.19
2019-01-28T08:33:06.327Z,72.44
2019-01-28T08:35:33.533Z,73.00
2019-01-28T08:38:00.276Z,73.09
2019-01-28T08:40:26.957Z,71.71
2019-01-28T08:42:53.541Z,71.35
2019-01-28T08:45:20.296Z,70.67
2019-01-28T08:47:47.042Z,70.47
2019-01-28T08:50:18.073Z,70.15
2019-01-28T08:52:44.850Z,70.21
2019-01-28T08:55:15.631Z,69.56
2019-01-28T08:57:42.313Z,69.08
2019-01-28T09:00:14.676Z,68.28
2019-01-28T09:02:41.466Z,68.28
2019-01-28T09:05:09.991Z,68.98
2019-01-28T09:07:36.723Z,67.77
2019-01-28T09:10:08.660Z,67.15
2019-01-28T09:12:35.267Z,67.81
2019-01-28T09:15:05.785Z,67.39
2019-01-28T09:17:32.658Z,67.30
2019-01-28T09:19:59.372Z,67.40
2019-01-28T09:22:26.012Z,66.58
2019-01-28T09:24:52.584Z,67.28
2019-01-28T09:27:19.148Z,66.66
2019-01-28T09:29:45.789Z,66.60
2019-01-28T09:32:12.371Z,65.46
2019-01-28T09:34:39.056Z,64.85
2019-01-28T09:37:05.756Z,65.35
2019-01-28T09:39:32.456Z,64.54
2019-01-28T09:41:59.042Z,64.50
2019-01-28T09:44:25.610Z,65.00
2019-01-28T09:46:52.228Z,64.17
2019-01-28T09:49:18.786Z,63.96
2019-01-28T09:51:45.356Z,64.16
2019-01-28T09:54:11.954Z,63.57
2019-01-28T09:56:38.564Z,62.74
2019-01-28T09:59:05.404Z,62.58
2019-01-28T10:01:32.123Z,62.42
2019-01-28T10:03:58.999Z,62.28
2019-01-28T10:06:25.824Z,62.77
2019-01-28T10:08:52.428Z,62.07
2019-01-28T10:11:19.010Z,62.21
2019-01-28T10:13:45.633Z,61.61
2019-01-28T10:16:12.229Z,60.71
2019-01-28T10:18:41.896Z,60.11
2019-01-28T10:21:07.384Z,60.22
2019-01-28T10:23:34.051Z,60.10
2019-01-28T10:26:04.703Z,59.80
2019-01-28T10:28:31.956Z,59.76
2019-01-28T10:30:58.523Z,59.78
2019-01-28T10:33:25.129Z,59.68
2019-01-28T10:35:51.703Z,59.30
2019-01-28T10:38:18.294Z,59.65
2019-01-28T10:40:45.162Z,59.32
2019-01-28T10:43:12.075Z,59.25
2019-01-28T10:45:38.636Z,59.46
2019-01-28T10:48:10.067Z,59.02
2019-01-28T10:50:39.713Z,59.01
2019-01-28T10:53:08.288Z,59.41
2019-01-28T10:55:34.890Z,61.27
2019-01-28T10:58:01.736Z,62.37
2019-01-28T11:00:34.071Z,62.31
2019-01-28T11:03:00.885Z,61.46
2019-01-28T11:05:27.653Z,61.16
2019-01-28T11:07:54.221Z,61.23
2019-01-28T11:10:24.948Z,60.45
2019-01-28T11:12:51.571Z,59.88
2019-01-28T11:15:24.046Z,59.76
2019-01-28T11:17:51.622Z,59.25
2019-01-28T11:20:18.330Z,59.71
2019-01-28T11:22:45.291Z,59.45
2019-01-28T11:25:16.639Z,60.30
2019-01-28T11:27:44.699Z,61.15
2019-01-28T11:30:17.381Z,62.38
2019-01-28T11:32:44.110Z,61.21
2019-01-28T11:35:10.792Z,60.79
2019-01-28T11:37:37.830Z,60.51
2019-01-28T11:40:10.418Z,61.51
2019-01-28T11:42:37.230Z,61.21
2019-01-28T11:45:09.723Z,64.26
2019-01-28T11:47:36.376Z,63.90
2019-01-28T11:50:07.389Z,64.69
2019-01-28T11:52:34.047Z,63.98
2019-01-28T11:55:00.658Z,64.31
2019-01-28T11:57:27.295Z,62.97
2019-01-28T11:59:53.936Z,62.10
2019-01-28T12:02:20.616Z,61.82
2019-01-28T12:04:47.189Z,61.66
2019-01-28T12:07:13.798Z,61.37
2019-01-28T12:09:40.367Z,60.58
2019-01-28T12:12:06.998Z,61.16
2019-01-28T12:14:33.693Z,60.96
2019-01-28T12:17:00.455Z,60.66
2019-01-28T12:19:27.048Z,61.20
2019-01-28T12:21:54.550Z,63.16
2019-01-28T12:24:21.181Z,62.15
2019-01-28T12:26:47.856Z,62.82
2019-01-28T12:29:14.553Z,63.41
2019-01-28T12:31:41.089Z,62.13
2019-01-28T12:34:07.669Z,61.92
2019-01-28T12:36:34.378Z,62.51
2019-01-28T12:39:01.147Z,63.64
2019-01-28T12:41:27.783Z,64.00
2019-01-28T12:43:54.396Z,64.49
2019-01-28T12:46:20.976Z,63.92
2019-01-28T12:48:47.611Z,63.67
2019-01-28T12:51:14.277Z,63.07
2019-01-28T12:53:40.925Z,65.51
2019-01-28T12:56:07.610Z,64.66
2019-01-28T12:59:31.109Z,65.15
2019-01-28T13:02:00.191Z,64.52
2019-01-28T13:04:26.880Z,64.00
2019-01-28T13:06:53.462Z,65.16
2019-01-28T13:09:20.182Z,64.41
2019-01-28T13:11:46.820Z,64.08
2019-01-28T13:14:13.404Z,64.82
2019-01-28T13:16:40.229Z,64.51
2019-01-28T13:19:06.847Z,64.21
2019-01-28T13:21:33.456Z,64.33
2019-01-28T13:24:00.148Z,64.11
2019-01-28T13:26:26.735Z,64.54
2019-01-28T13:28:53.308Z,65.04
2019-01-28T13:31:19.861Z,64.67
2019-01-28T13:33:46.454Z,64.47
2019-01-28T13:36:13.051Z,64.55
2019-01-28T13:38:39.778Z,63.63
2019-01-28T13:41:06.500Z,64.42
2019-01-28T13:43:33.258Z,63.98
2019-01-28T13:46:00.029Z,64.12
2019-01-28T13:48:29.989Z,65.77
2019-01-28T13:50:56.654Z,65.50
2019-01-28T13:53:23.259Z,65.89
2019-01-28T13:55:49.831Z,65.05
2019-01-28T13:58:17.536Z,65.51
2019-01-28T14:00:44.296Z,65.31
2019-01-28T14:03:10.984Z,66.12
2019-01-28T14:05:38.883Z,64.99
2019-01-28T14:08:05.702Z,65.79
2019-01-28T14:10:33.584Z,66.46
2019-01-28T14:13:00.326Z,65.77
2019-01-28T14:15:31.320Z,66.22
2019-01-28T14:17:57.932Z,65.56
2019-01-28T14:20:28.214Z,65.58
2019-01-28T14:22:54.852Z,65.59
2019-01-28T14:25:21.557Z,65.60
2019-01-28T14:27:49.972Z,66.22
2019-01-28T14:30:22.399Z,65.37
2019-01-28T14:32:48.983Z,65.43
2019-01-28T14:35:16.947Z,65.73
2019-01-28T14:37:43.574Z,65.65
2019-01-28T14:40:15.904Z,66.58
2019-01-28T14:42:42.694Z,66.80
2019-01-28T14:45:11.279Z,68.21
2019-01-28T14:47:37.933Z,66.87
2019-01-28T14:50:10.328Z,68.64
2019-01-28T14:52:37.074Z,69.11
2019-01-28T14:55:05.465Z,68.01
2019-01-28T14:57:32.435Z,68.03
2019-01-28T14:59:59.090Z,66.83
2019-01-28T15:02:26.773Z,67.80
2019-01-28T15:04:53.349Z,68.42
2019-01-28T15:07:19.970Z,68.22
2019-01-28T15:09:46.517Z,69.08
2019-01-28T15:12:13.102Z,69.08
2019-01-28T15:14:39.653Z,69.28
2019-01-28T15:17:06.207Z,70.90
2019-01-28T15:19:33.045Z,70.87
2019-01-28T15:21:59.912Z,70.07
2019-01-28T15:24:27.631Z,71.79
2019-01-28T15:26:54.351Z,71.17
2019-01-28T15:29:21.047Z,71.95
2019-01-28T15:31:47.607Z,72.05
2019-01-28T15:34:14.236Z,72.64
2019-01-28T15:36:40.930Z,71.48
2019-01-28T15:39:08.058Z,70.84
2019-01-28T15:41:34.835Z,69.65
2019-01-28T15:44:01.405Z,70.83
2019-01-28T15:46:28.070Z,70.44
2019-01-28T15:48:54.630Z,70.45
2019-01-28T15:51:21.226Z,70.05
2019-01-28T15:53:47.916Z,70.05
2019-01-28T15:56:14.547Z,70.18
2019-01-28T15:58:41.127Z,70.36
2019-01-28T16:01:07.699Z,71.32
2019-01-28T16:03:35.590Z,72.18
2019-01-28T16:06:02.345Z,70.70
2019-01-28T16:08:29.024Z,71.76
2019-01-28T16:10:55.862Z,69.35
2019-01-28T16:13:22.575Z,70.12
2019-01-28T16:15:49.618Z,69.22
2019-01-28T16:18:17.305Z,69.13
2019-01-28T16:20:43.958Z,70.97
2019-01-28T16:23:10.562Z,71.24
2019-01-28T16:25:37.163Z,70.83
2019-01-28T16:28:04.313Z,70.50
2019-01-28T16:30:31.080Z,70.67
2019-01-28T16:32:57.892Z,70.58
2019-01-28T16:35:24.629Z,70.39
2019-01-28T16:37:52.360Z,71.22
2019-01-28T16:40:25.180Z,71.74
2019-01-28T16:42:52.029Z,71.50
2019-01-28T16:45:18.634Z,71.80
2019-01-28T16:47:45.315Z,72.06
2019-01-28T16:50:17.593Z,72.46
2019-01-28T16:52:44.406Z,72.93
2019-01-28T16:55:13.574Z,73.45
2019-01-28T16:57:40.817Z,72.33
2019-01-28T17:00:13.108Z,71.02
2019-01-28T17:02:39.808Z,71.05
2019-01-28T17:05:10.508Z,71.57
2019-01-28T17:07:37.119Z,70.92
2019-01-28T17:10:08.787Z,71.80
2019-01-28T17:12:35.453Z,71.84
2019-01-28T17:15:05.813Z,71.48
2019-01-28T17:17:32.576Z,71.29
2019-01-28T17:20:00.328Z,72.10
2019-01-28T17:22:30.410Z,72.29
2019-01-28T17:24:57.296Z,72.15
2019-01-28T17:27:24.039Z,71.27
2019-01-28T17:29:50.605Z,72.20
2019-01-28T17:32:17.419Z,72.81
2019-01-28T17:34:44.576Z,73.20
2019-01-28T17:37:11.843Z,75.04
2019-01-28T17:39:38.847Z,75.76
2019-01-28T17:42:05.902Z,75.59
2019-01-28T17:44:32.884Z,76.93
2019-01-28T17:47:00.024Z,77.55
2019-01-28T17:49:26.789Z,78.23
2019-01-28T17:51:53.408Z,78.37
2019-01-28T17:54:19.995Z,79.25
2019-01-28T17:56:46.632Z,79.29
2019-01-28T17:59:13.370Z,79.73
2019-01-28T18:01:39.993Z,80.03
2019-01-28T18:04:06.583Z,80.19
2019-01-28T18:06:34.523Z,80.11
2019-01-28T18:09:01.290Z,80.27
2019-01-28T18:11:28.989Z,80.31
2019-01-28T18:13:55.603Z,80.18
2019-01-28T18:16:22.179Z,81.11
2019-01-28T18:18:48.912Z,80.57
2019-01-28T18:21:15.559Z,80.60
2019-01-28T18:23:44.033Z,81.00
2019-01-28T18:26:10.664Z,80.90
2019-01-28T18:28:37.348Z,81.03
2019-01-28T18:31:03.977Z,81.44
2019-01-28T18:33:30.554Z,81.70
2019-01-28T18:36:05.136Z,81.30
2019-01-28T18:38:25.604Z,81.42
2019-01-28T18:40:52.218Z,81.54
2019-01-28T18:43:18.778Z,81.50
2019-01-28T18:45:45.383Z,81.22
2019-01-28T18:48:13.019Z,81.83
2019-01-28T18:50:39.629Z,81.93
2019-01-28T18:53:06.609Z,81.70
2019-01-28T18:55:33.454Z,81.78
2019-01-28T18:58:00.151Z,81.88
2019-01-28T19:00:29.942Z,82.05
2019-01-28T19:02:56.591Z,82.19
2019-01-28T19:05:25.814Z,82.50
2019-01-28T19:07:54.524Z,81.99
2019-01-28T19:10:23.040Z,81.69
2019-01-28T19:12:52.749Z,81.90
2019-01-28T19:15:21.662Z,81.83
2019-01-28T19:17:50.606Z,81.85
2019-01-28T19:20:21.537Z,82.21
2019-01-28T19:22:48.597Z,81.56
2019-01-28T19:25:16.695Z,81.88
2019-01-28T19:27:43.832Z,81.60
2019-01-28T19:30:14.423Z,81.40
2019-01-28T19:32:44.280Z,82.10
2019-01-28T19:35:11.777Z,82.20
2019-01-28T19:37:38.553Z,82.30
2019-01-28T19:40:10.669Z,82.23
2019-01-28T19:42:39.133Z,82.30
2019-01-28T19:45:12.766Z,82.78
2019-01-28T19:47:39.917Z,82.87
2019-01-28T19:50:13.211Z,82.56
2019-01-28T19:52:40.817Z,82.70
2019-01-28T19:55:11.329Z,82.72
2019-01-28T19:57:39.064Z,82.70
2019-01-28T20:00:12.215Z,82.89
2019-01-28T20:02:39.921Z,82.53
2019-01-28T20:05:10.180Z,82.57
2019-01-28T20:07:36.966Z,82.54
2019-01-28T20:10:08.281Z,82.72
2019-01-28T20:12:37.551Z,82.69
2019-01-28T20:15:11.600Z,82.60
2019-01-28T20:17:38.248Z,82.70
2019-01-28T20:20:10.583Z,82.81
2019-01-28T20:22:37.327Z,82.58
2019-01-28T20:25:08.682Z,82.71
2019-01-28T20:27:35.357Z,82.86
2019-01-28T20:30:06.441Z,82.79
2019-01-28T20:32:33.218Z,82.99
2019-01-28T20:34:59.816Z,83.09
2019-01-28T20:37:26.385Z,83.06
2019-01-28T20:39:53.053Z,82.88
2019-01-28T20:42:19.775Z,83.10
2019-01-28T20:44:46.387Z,82.79
2019-01-28T20:47:13.098Z,82.85
2019-01-28T20:49:39.709Z,82.62
2019-01-28T20:52:06.348Z,82.25
2019-01-28T20:54:33.221Z,82.34
2019-01-28T20:56:59.801Z,82.16
2019-01-28T20:59:26.486Z,82.56
2019-01-28T21:01:53.111Z,82.88
2019-01-28T21:04:19.664Z,82.95
2019-01-28T21:06:46.366Z,82.54
2019-01-28T21:09:13.037Z,82.61
2019-01-28T21:11:39.610Z,82.61
2019-01-28T21:14:06.366Z,82.35
2019-01-28T21:16:33.220Z,82.16
2019-01-28T21:19:01.193Z,82.34
2019-01-28T21:21:27.788Z,82.69
2019-01-28T21:23:54.367Z,82.38
2019-01-28T21:26:20.944Z,82.69
2019-01-28T21:28:47.591Z,82.94
2019-01-28T21:31:14.152Z,82.78
2019-01-28T21:33:40.731Z,83.06
2019-01-28T21:36:07.340Z,83.08
2019-01-28T21:38:36.001Z,83.07
2019-01-28T21:41:02.790Z,82.85
2019-01-28T21:43:29.861Z,82.60
2019-01-28T21:45:56.575Z,82.74
2019-01-28T21:48:23.154Z,82.88
2019-01-28T21:50:49.861Z,82.66
2019-01-28T21:53:16.523Z,82.91
2019-01-28T21:55:43.116Z,82.86
2019-01-28T21:58:09.754Z,82.43
2019-01-28T22:00:36.437Z,82.46
2019-01-28T22:03:03.068Z,82.22
2019-01-28T22:05:29.694Z,81.99
2019-01-28T22:07:56.551Z,82.01
2019-01-28T22:10:23.210Z,82.00
2019-01-28T22:12:49.790Z,82.32
2019-01-28T22:15:17.881Z,82.76
2019-01-28T22:17:44.454Z,82.28
2019-01-28T22:20:13.770Z,82.64
2019-01-28T22:22:40.404Z,82.55
2019-01-28T22:25:12.193Z,82.37
2019-01-28T22:27:39.325Z,81.93
2019-01-28T22:30:11.809Z,81.95
2019-01-28T22:32:38.562Z,82.25
2019-01-28T22:35:07.581Z,82.35
2019-01-28T22:37:34.376Z,82.18
2019-01-28T22:40:01.200Z,82.24
2019-01-28T22:42:28.020Z,82.53
2019-01-28T22:44:54.739Z,82.16
2019-01-28T22:47:21.467Z,82.39
2019-01-28T22:49:48.126Z,82.41
2019-01-28T22:52:15.271Z,82.05
2019-01-28T22:54:43.889Z,81.87
2019-01-28T22:57:10.424Z,82.37
2019-01-28T22:59:37.704Z,82.46
2019-01-28T23:02:04.379Z,82.15
2019-01-28T23:04:33.157Z,81.86
2019-01-28T23:06:59.969Z,81.85
2019-01-28T23:10:23.134Z,82.00
2019-01-28T23:12:49.699Z,81.67
2019-01-28T23:15:16.357Z,81.41
2019-01-28T23:17:42.926Z,81.62
2019-01-28T23:20:09.786Z,81.52
2019-01-28T23:22:36.463Z,81.65
2019-01-28T23:25:05.293Z,81.84
2019-01-28T23:27:35.056Z,81.69
2019-01-28T23:30:02.036Z,81.81
2019-01-28T23:32:30.148Z,81.93
2019-01-28T23:34:57.485Z,81.91
2019-01-28T23:37:24.471Z,82.40
2019-01-28T23:39:51.479Z,82.22
2019-01-28T23:42:18.568Z,82.01
2019-01-28T23:44:45.490Z,81.99
2019-01-28T23:47:12.517Z,82.02
2019-01-28T23:49:39.700Z,82.06
2019-01-28T23:52:06.876Z,81.74
2019-01-28T23:54:33.902Z,81.72
2019-01-28T23:57:00.807Z,82.02
2019-01-28T23:59:27.934Z,82.40
